Time;durP1;ratioP1;P1;durP2;ratioP2;P2;SDS_P1;SDS_P2;PMS_P1;PMS_P2;Temp;Humidity;BMP_temperature;BMP_pressure;BME280_temperature;BME280_humidity;BME280_pressure;Samples;Min_cycle;Max_cycle;Signal;HPM_P1;HPM_P2
2021/08/25 12:51:40;;;;;;;20.07;18.97;;;23.10;98.10;;;;;;2424393;54;52528;-61
2021/08/25 12:54:09;;;;;;;19.97;18.97;;;23.20;90.90;;;;;;2575363;54;20433;-60
2021/08/25 12:56:40;;;;;;;19.50;18.50;;;23.10;90.90;;;;;;2571588;54;20402;-60
2021/08/25 12:59:09;;;;;;;19.80;18.60;;;23.10;91.00;;;;;;2575004;54;20407;-60
2021/08/25 13:01:40;;;;;;;20.50;19.30;;;23.10;91.00;;;;;;2573075;54;20399;-60
2021/08/25 13:04:09;;;;;;;20.30;19.00;;;23.00;91.00;;;;;;2578550;54;20402;-59
2021/08/25 13:06:43;;;;;;;20.50;19.40;;;23.00;91.00;;;;;;2574754;54;21443;-59
2021/08/25 13:09:13;;;;;;;20.13;19.03;;;23.00;91.10;;;;;;2582812;39;20822;-60
2021/08/25 13:11:44;;;;;;;19.23;18.13;;;22.90;91.20;;;;;;2578792;54;20355;-59
2021/08/25 13:14:13;;;;;;;19.17;18.17;;;22.90;91.20;;;;;;2576472;54;20391;-59
2021/08/25 13:16:43;;;;;;;19.90;18.80;;;22.90;91.20;;;;;;2580261;54;20428;-60
2021/08/25 13:19:14;;;;;;;19.50;18.40;;;22.90;91.20;;;;;;2579052;54;20406;-60
2021/08/25 13:21:48;;;;;;;19.13;18.00;;;22.80;91.20;;;;;;2577562;54;20422;-59
2021/08/25 13:24:18;;;;;;;20.40;19.30;;;22.80;91.20;;;;;;2579264;47;20398;-59
2021/08/25 13:26:50;;;;;;;18.70;17.70;;;22.80;91.20;;;;;;2580422;54;21349;-62
2021/08/25 13:29:22;;;;;;;19.47;18.37;;;22.80;91.30;;;;;;2579885;54;20518;-62
2021/08/25 13:31:51;;;;;;;19.93;18.93;;;22.80;91.30;;;;;;2577427;54;20458;-61
2021/08/25 13:34:21;;;;;;;20.80;19.70;;;22.80;91.30;;;;;;2577556;54;20424;-61
2021/08/25 13:36:54;;;;;;;19.60;18.40;;;22.80;91.40;;;;;;2580263;54;20393;-59
2021/08/25 13:39:23;;;;;;;20.43;19.33;;;22.80;91.40;;;;;;2580008;39;20661;-60
2021/08/25 13:41:53;;;;;;;20.60;19.40;;;22.80;91.40;;;;;;2579307;54;20952;-61
2021/08/25 13:44:24;;;;;;;19.43;18.33;;;22.80;91.40;;;;;;2582059;54;20497;-62
2021/08/25 13:46:53;;;;;;;19.53;18.47;;;22.80;91.40;;;;;;2584000;54;20414;-62
2021/08/25 13:49:24;;;;;;;20.23;19.13;;;22.80;91.40;;;;;;2581117;54;20469;-62
2021/08/25 13:51:56;;;;;;;20.03;18.93;;;22.80;91.40;;;;;;2582689;54;20398;-61
2021/08/25 13:54:26;;;;;;;20.27;19.03;;;22.80;91.40;;;;;;2584079;54;20486;-60
2021/08/25 13:56:56;;;;;;;20.93;19.60;;;22.80;91.50;;;;;;2584653;48;20399;-60
2021/08/25 13:59:26;;;;;;;18.93;17.83;;;22.80;91.50;;;;;;2583587;54;20429;-61
2021/08/25 14:01:57;;;;;;;19.50;18.40;;;22.80;91.60;;;;;;2584408;54;20925;-61
2021/08/25 14:04:28;;;;;;;19.60;18.33;;;22.80;91.60;;;;;;2584408;54;20514;-60
2021/08/25 14:07:02;;;;;;;19.80;18.60;;;22.80;91.60;;;;;;2583180;54;20866;-61
2021/08/25 14:09:33;;;;;;;19.43;18.33;;;22.80;91.60;;;;;;2581048;54;20422;-61
2021/08/25 14:12:03;;;;;;;18.60;17.60;;;22.80;91.70;;;;;;2585282;54;21260;-61
2021/08/25 14:14:33;;;;;;;18.47;17.37;;;22.80;91.60;;;;;;2579123;54;20433;-60
2021/08/25 14:17:06;;;;;;;18.30;17.23;;;22.70;90.70;;;;;;2582551;54;20425;-59
2021/08/25 14:19:35;;;;;;;17.40;16.40;;;22.70;89.30;;;;;;2581397;54;20382;-60
2021/08/25 14:22:08;;;;;;;19.03;17.93;;;22.60;87.90;;;;;;2581205;47;20525;-59
2021/08/25 14:24:38;;;;;;;17.50;16.50;;;22.60;86.80;;;;;;2583546;54;20417;-60
2021/08/25 14:27:08;;;;;;;18.73;17.63;;;22.60;86.80;;;;;;2584936;54;20534;-60
2021/08/25 14:29:37;;;;;;;18.23;17.23;;;22.60;85.70;;;;;;2578654;54;21418;-59
2021/08/25 14:32:08;;;;;;;17.77;16.77;;;22.50;85.30;;;;;;2579661;39;21071;-60
2021/08/25 14:34:39;;;;;;;19.33;18.13;;;22.60;86.20;;;;;;2580532;54;20402;-59
2021/08/25 14:37:10;;;;;;;17.93;17.00;;;22.60;86.40;;;;;;2581382;54;20411;-60
2021/08/25 14:39:39;;;;;;;18.87;17.77;;;22.60;85.80;;;;;;2576030;47;20390;-60
2021/08/25 14:42:14;;;;;;;17.93;16.93;;;22.50;85.00;;;;;;2585720;54;20403;-61
2021/08/25 14:44:44;;;;;;;17.80;16.90;;;22.50;85.30;;;;;;2588932;47;21495;-59
2021/08/25 14:47:14;;;;;;;18.67;17.57;;;22.50;85.60;;;;;;2586629;54;20924;-60
2021/08/25 14:49:45;;;;;;;17.83;16.93;;;22.50;85.70;;;;;;2586872;47;20399;-60
2021/08/25 14:52:17;;;;;;;18.43;17.33;;;22.50;85.80;;;;;;2587023;54;20413;-59
2021/08/25 14:54:46;;;;;;;18.37;17.40;;;22.50;84.70;;;;;;2588078;54;21225;-60
2021/08/25 14:57:15;;;;;;;18.53;17.40;;;22.50;84.80;;;;;;2589758;54;20444;-59
2021/08/25 14:59:46;;;;;;;19.17;18.07;;;22.50;85.80;;;;;;2590511;54;20411;-62
2021/08/25 15:02:15;;;;;;;18.77;17.87;;;22.60;86.60;;;;;;2587873;54;20421;-61
2021/08/25 15:04:44;;;;;;;19.23;18.10;;;22.60;87.10;;;;;;2590364;54;20371;-61
2021/08/25 15:07:16;;;;;;;19.60;18.50;;;22.70;87.60;;;;;;2590045;54;20609;-60
2021/08/25 15:09:46;;;;;;;18.80;17.80;;;22.70;88.00;;;;;;2593512;53;20414;-61
2021/08/25 15:12:15;;;;;;;18.87;17.97;;;22.70;88.30;;;;;;2594057;54;20569;-61
2021/08/25 15:14:47;;;;;;;20.10;19.00;;;22.70;88.70;;;;;;2594240;39;21005;-61
2021/08/25 15:17:16;;;;;;;20.60;19.40;;;22.70;89.00;;;;;;2595332;54;21267;-59
2021/08/25 15:19:45;;;;;;;20.47;19.37;;;22.70;89.30;;;;;;2594977;54;20351;-61
2021/08/25 15:22:18;;;;;;;19.87;18.77;;;22.70;89.60;;;;;;2596327;54;20402;-60
2021/08/25 15:24:47;;;;;;;18.90;17.90;;;22.70;89.90;;;;;;2589442;54;20798;-60
2021/08/25 15:27:16;;;;;;;19.80;18.67;;;22.70;90.00;;;;;;2591850;51;20415;-60
2021/08/25 15:29:45;;;;;;;19.37;18.27;;;22.80;90.20;;;;;;2590036;39;20600;-60
2021/08/25 15:32:14;;;;;;;19.10;18.10;;;22.80;90.20;;;;;;2593685;39;20686;-60
2021/08/25 15:34:44;;;;;;;19.40;18.30;;;22.70;90.20;;;;;;2596665;47;20391;-60
2021/08/25 15:37:13;;;;;;;19.43;18.33;;;22.70;90.30;;;;;;2598552;47;20965;-61
2021/08/25 15:39:45;;;;;;;19.53;18.43;;;22.80;90.40;;;;;;2597188;54;20363;-60
2021/08/25 15:42:15;;;;;;;20.10;19.00;;;22.80;90.50;;;;;;2598922;54;20403;-61
2021/08/25 15:44:45;;;;;;;20.10;19.00;;;22.80;90.60;;;;;;2597646;54;20395;-61
2021/08/25 15:47:16;;;;;;;19.80;18.63;;;22.80;90.60;;;;;;2597120;54;20391;-61
2021/08/25 15:49:52;;;;;;;19.80;18.70;;;22.70;90.60;;;;;;2599133;54;20434;-61
2021/08/25 15:52:26;;;;;;;19.47;18.37;;;22.80;90.70;;;;;;2598354;54;20402;-61
2021/08/25 15:55:01;;;;;;;19.93;18.93;;;22.70;90.70;;;;;;2597716;54;20402;-61
2021/08/25 15:57:32;;;;;;;18.93;17.93;;;22.80;90.80;;;;;;2600714;39;20890;-60
2021/08/25 16:00:01;;;;;;;19.73;18.60;;;22.80;90.80;;;;;;2599809;54;21369;-61
2021/08/25 16:02:33;;;;;;;19.27;18.17;;;22.80;90.90;;;;;;2598137;47;20466;-60
2021/08/25 16:05:02;;;;;;;19.30;18.20;;;22.80;90.90;;;;;;2598871;54;20447;-61
2021/08/25 16:07:33;;;;;;;19.40;18.30;;;22.80;91.00;;;;;;2597099;54;20437;-61
2021/08/25 16:10:05;;;;;;;18.20;17.20;;;22.80;91.00;;;;;;2597467;54;20411;-60
2021/08/25 16:12:34;;;;;;;18.70;17.63;;;22.80;91.00;;;;;;2599327;39;20795;-60
2021/08/25 16:15:03;;;;;;;19.73;18.57;;;22.80;91.00;;;;;;2598754;39;20912;-60
2021/08/25 16:17:32;;;;;;;19.47;18.47;;;22.80;91.10;;;;;;2597846;39;20745;-60
2021/08/25 16:20:01;;;;;;;18.37;17.30;;;22.80;91.10;;;;;;2598201;54;20425;-60
2021/08/25 16:22:30;;;;;;;20.37;19.23;;;22.80;91.10;;;;;;2600461;54;20529;-61
2021/08/25 16:24:59;;;;;;;17.80;16.90;;;22.80;91.10;;;;;;2600464;54;20494;-59
2021/08/25 16:27:31;;;;;;;19.07;18.00;;;22.80;91.20;;;;;;2600177;54;20521;-59
2021/08/25 16:30:00;;;;;;;18.00;17.07;;;22.80;91.20;;;;;;2600397;54;20526;-60
2021/08/25 16:32:29;;;;;;;19.20;18.03;;;22.80;91.20;;;;;;2600157;39;20670;-60
2021/08/25 16:34:58;;;;;;;18.20;17.20;;;22.80;91.20;;;;;;2601286;54;20363;-60
2021/08/25 16:37:27;;;;;;;19.13;18.07;;;22.80;91.30;;;;;;2599780;54;20395;-59
2021/08/25 16:39:56;;;;;;;18.83;17.83;;;22.80;91.30;;;;;;2599938;54;20498;-60
2021/08/25 16:42:25;;;;;;;19.37;18.27;;;22.80;91.30;;;;;;2602533;54;20429;-60
2021/08/25 16:44:57;;;;;;;18.97;17.87;;;22.80;91.30;;;;;;2600825;39;20838;-60
2021/08/25 16:47:27;;;;;;;19.63;18.47;;;22.80;91.30;;;;;;2596649;54;20848;-61
2021/08/25 16:49:56;;;;;;;18.30;17.40;;;22.80;91.40;;;;;;2600431;54;20367;-60
2021/08/25 16:52:25;;;;;;;18.83;17.73;;;22.80;91.40;;;;;;2598393;54;20959;-60
2021/08/25 16:54:54;;;;;;;18.80;17.60;;;22.80;91.40;;;;;;2597267;51;20395;-59
2021/08/25 16:57:23;;;;;;;19.73;18.53;;;22.80;91.40;;;;;;2603024;54;20460;-60
2021/08/25 16:59:52;;;;;;;18.23;17.10;;;22.80;91.40;;;;;;2603144;54;20506;-60
2021/08/25 17:02:24;;;;;;;18.57;17.57;;;22.80;91.40;;;;;;2600761;54;20363;-61
2021/08/25 17:04:53;;;;;;;17.87;16.97;;;22.80;91.40;;;;;;2603181;51;20401;-59
2021/08/25 17:07:22;;;;;;;17.03;16.13;;;22.80;91.40;;;;;;2604082;51;20405;-60
2021/08/25 17:09:51;;;;;;;17.93;16.93;;;22.80;91.40;;;;;;2604057;54;20861;-60
2021/08/25 17:12:20;;;;;;;19.30;18.10;;;22.80;91.50;;;;;;2603845;51;20426;-60
2021/08/25 17:14:49;;;;;;;18.63;17.43;;;22.80;91.50;;;;;;2603198;54;20406;-60
2021/08/25 17:17:19;;;;;;;18.63;17.57;;;22.80;91.50;;;;;;2600506;39;20774;-60
2021/08/25 17:19:52;;;;;;;18.57;17.60;;;22.80;91.50;;;;;;2604158;54;20429;-60
2021/08/25 17:22:21;;;;;;;18.40;17.40;;;22.80;91.50;;;;;;2603584;54;20437;-59
2021/08/25 17:24:52;;;;;;;18.17;17.17;;;22.80;91.90;;;;;;2600225;54;20433;-61
2021/08/25 17:27:21;;;;;;;18.30;17.33;;;22.80;91.50;;;;;;2603187;54;20413;-61
2021/08/25 17:29:51;;;;;;;18.10;17.20;;;22.80;91.50;;;;;;2604319;54;20389;-61
2021/08/25 17:32:20;;;;;;;18.60;17.70;;;22.80;91.50;;;;;;2601903;54;20456;-60
2021/08/25 17:34:52;;;;;;;19.33;18.13;;;22.80;91.50;;;;;;2601233;54;20421;-60
2021/08/25 17:37:22;;;;;;;20.00;18.80;;;22.80;91.50;;;;;;2599820;54;20395;-61
2021/08/25 17:39:52;;;;;;;19.53;18.43;;;22.80;91.50;;;;;;2603263;54;20390;-60
2021/08/25 17:42:21;;;;;;;19.97;18.77;;;22.80;91.50;;;;;;2603130;54;20552;-60
2021/08/25 17:44:50;;;;;;;19.00;17.83;;;22.80;91.50;;;;;;2603603;54;20436;-60
2021/08/25 17:47:20;;;;;;;18.20;17.30;;;22.80;91.50;;;;;;2604830;54;20429;-60
2021/08/25 17:49:51;;;;;;;18.50;17.40;;;22.80;91.50;;;;;;2603553;39;21059;-60
2021/08/25 17:52:22;;;;;;;18.17;17.10;;;22.80;91.50;;;;;;2605503;54;20514;-61
2021/08/25 17:54:51;;;;;;;18.30;17.30;;;22.80;91.50;;;;;;2605783;51;20481;-60
2021/08/25 17:57:21;;;;;;;17.73;16.83;;;22.80;91.50;;;;;;2600717;39;20781;-59
2021/08/25 17:59:50;;;;;;;17.57;16.67;;;22.80;91.50;;;;;;2598222;54;20733;-60
2021/08/25 18:02:20;;;;;;;19.03;17.83;;;22.80;91.60;;;;;;2601269;54;20405;-60
2021/08/25 18:04:51;;;;;;;18.53;17.20;;;22.80;91.60;;;;;;2604071;54;20448;-59
2021/08/25 18:07:21;;;;;;;17.53;16.53;;;22.80;91.60;;;;;;2601538;54;20391;-60
2021/08/25 18:09:50;;;;;;;17.00;16.00;;;22.80;91.60;;;;;;2603495;54;20355;-60
2021/08/25 18:12:19;;;;;;;18.40;17.23;;;22.80;91.60;;;;;;2604116;54;20553;-60
2021/08/25 18:14:53;;;;;;;18.07;16.97;;;22.80;91.60;;;;;;2604329;54;20383;-60
2021/08/25 18:17:23;;;;;;;18.53;17.33;;;22.80;91.60;;;;;;2607355;47;20382;-60
2021/08/25 18:19:56;;;;;;;18.27;17.20;;;22.80;91.60;;;;;;2608241;54;20391;-59
2021/08/25 18:22:26;;;;;;;17.57;16.67;;;22.80;91.60;;;;;;2608155;47;20382;-60
2021/08/25 18:24:55;;;;;;;18.43;17.43;;;22.80;91.70;;;;;;2607002;54;20400;-60
2021/08/25 18:27:25;;;;;;;17.40;16.40;;;22.80;91.70;;;;;;2607405;47;20947;-60
2021/08/25 18:29:54;;;;;;;18.90;17.73;;;22.80;91.70;;;;;;2607293;54;20399;-61
2021/08/25 18:32:26;;;;;;;17.47;16.40;;;22.80;91.70;;;;;;2603889;47;20399;-60
2021/08/25 18:34:58;;;;;;;17.23;16.33;;;22.80;91.70;;;;;;2603711;54;20404;-60
2021/08/25 18:37:27;;;;;;;16.97;15.97;;;22.80;91.80;;;;;;2603828;54;20429;-60
2021/08/25 18:39:57;;;;;;;16.83;15.70;;;22.80;91.70;;;;;;2601622;54;20762;-61
2021/08/25 18:42:27;;;;;;;16.97;16.10;;;22.80;91.80;;;;;;2606507;54;20449;-60
2021/08/25 18:44:56;;;;;;;15.73;14.90;;;22.80;91.80;;;;;;2608236;54;20403;-60
2021/08/25 18:47:25;;;;;;;16.03;15.13;;;22.80;91.80;;;;;;2607025;47;20410;-60
2021/08/25 18:49:54;;;;;;;17.10;16.00;;;22.80;91.80;;;;;;2606936;54;20480;-61
2021/08/25 18:52:26;;;;;;;17.50;16.50;;;22.80;91.80;;;;;;2603499;54;20418;-60
2021/08/25 18:54:55;;;;;;;15.90;15.10;;;22.80;91.80;;;;;;2607609;54;20387;-60
2021/08/25 18:57:25;;;;;;;16.47;15.57;;;22.80;91.80;;;;;;2603808;54;20527;-60
2021/08/25 18:59:54;;;;;;;16.20;15.30;;;22.80;91.80;;;;;;2605918;54;20424;-59
2021/08/25 19:02:23;;;;;;;17.23;16.17;;;22.80;91.80;;;;;;2605004;54;20374;-59
2021/08/25 19:04:53;;;;;;;16.70;15.70;;;22.80;91.80;;;;;;2602362;47;20390;-61
2021/08/25 19:07:22;;;;;;;16.53;15.63;;;22.80;91.90;;;;;;2606757;39;21010;-58
2021/08/25 19:09:54;;;;;;;16.20;15.20;;;22.80;91.90;;;;;;2608061;54;20424;-60
2021/08/25 19:12:23;;;;;;;16.83;15.83;;;22.80;91.90;;;;;;2602775;54;20458;-60
2021/08/25 19:14:52;;;;;;;16.23;15.33;;;22.90;92.00;;;;;;2604422;54;20811;-59
2021/08/25 19:17:22;;;;;;;16.00;15.00;;;22.90;91.90;;;;;;2602417;54;20368;-58
2021/08/25 19:19:51;;;;;;;16.53;15.43;;;22.90;91.90;;;;;;2599819;54;20518;-58
2021/08/25 19:22:20;;;;;;;17.27;16.20;;;22.90;91.90;;;;;;2603245;54;20529;-58
2021/08/25 19:24:49;;;;;;;17.00;16.20;;;22.90;92.00;;;;;;2605202;39;20663;-59
2021/08/25 19:27:21;;;;;;;17.30;16.30;;;22.90;91.90;;;;;;2605636;54;20728;-61
2021/08/25 19:29:51;;;;;;;17.13;16.10;;;22.90;92.00;;;;;;2604604;54;20375;-59
2021/08/25 19:32:22;;;;;;;16.40;15.50;;;22.90;92.00;;;;;;2603484;54;20511;-60
2021/08/25 19:34:52;;;;;;;17.67;16.57;;;22.90;92.10;;;;;;2603905;54;20398;-59
2021/08/25 19:37:21;;;;;;;16.87;15.73;;;22.90;92.00;;;;;;2603393;47;21021;-60
2021/08/25 19:39:50;;;;;;;17.10;15.47;;;22.90;92.00;;;;;;2605570;54;20428;-59
2021/08/25 19:42:21;;;;;;;16.63;15.80;;;22.90;92.00;;;;;;2607336;50;20441;-59
2021/08/25 19:44:50;;;;;;;16.33;15.23;;;22.90;92.00;;;;;;2606582;39;20699;-60
2021/08/25 19:47:19;;;;;;;16.77;15.90;;;22.90;92.00;;;;;;2607191;47;20396;-60
2021/08/25 19:49:49;;;;;;;16.67;15.67;;;22.90;92.00;;;;;;2605680;39;20656;-60
2021/08/25 19:52:18;;;;;;;16.33;15.33;;;22.90;92.10;;;;;;2604653;48;20422;-60
2021/08/25 19:54:47;;;;;;;16.20;15.40;;;22.90;92.10;;;;;;2607120;39;20732;-59
2021/08/25 19:57:17;;;;;;;17.47;16.37;;;22.90;92.10;;;;;;2605788;47;21096;-60
2021/08/25 19:59:49;;;;;;;17.00;16.00;;;22.90;92.10;;;;;;2605721;39;20674;-60
2021/08/25 20:02:18;;;;;;;17.13;16.03;;;22.90;92.10;;;;;;2608328;39;21039;-60
2021/08/25 20:04:47;;;;;;;16.87;15.97;;;22.90;92.10;;;;;;2607736;54;20379;-60
2021/08/25 20:07:16;;;;;;;17.40;16.30;;;22.80;92.10;;;;;;2605573;39;20676;-60
2021/08/25 20:09:45;;;;;;;16.80;15.90;;;22.90;92.20;;;;;;2605514;54;20514;-60
2021/08/25 20:12:15;;;;;;;17.00;16.10;;;22.80;92.10;;;;;;2604806;54;20438;-60
2021/08/25 20:14:44;;;;;;;16.47;15.57;;;22.90;92.20;;;;;;2606986;54;20398;-60
2021/08/25 20:17:17;;;;;;;16.47;15.10;;;22.80;92.10;;;;;;2606328;54;20425;-59
2021/08/25 20:19:46;;;;;;;16.87;15.97;;;22.80;92.10;;;;;;2605282;54;20394;-60
2021/08/25 20:22:17;;;;;;;17.30;16.27;;;22.80;92.10;;;;;;2605905;47;20436;-59
2021/08/25 20:24:47;;;;;;;16.83;15.83;;;22.80;92.20;;;;;;2608773;54;20430;-60
2021/08/25 20:27:16;;;;;;;17.40;16.30;;;22.80;92.20;;;;;;2606996;39;20682;-60
2021/08/25 20:29:45;;;;;;;16.23;15.33;;;22.80;92.20;;;;;;2607549;39;20702;-60
2021/08/25 20:32:17;;;;;;;17.33;16.40;;;22.80;92.20;;;;;;2606338;54;20411;-59
2021/08/25 20:34:46;;;;;;;18.10;16.97;;;22.80;92.20;;;;;;2605272;54;20406;-60
2021/08/25 20:37:15;;;;;;;18.27;17.07;;;22.80;92.20;;;;;;2603641;54;20945;-60
2021/08/25 20:39:44;;;;;;;17.57;16.47;;;22.80;92.20;;;;;;2605421;54;20391;-60
2021/08/25 20:42:14;;;;;;;18.10;16.80;;;22.80;92.20;;;;;;2606335;54;20411;-60
2021/08/25 20:44:43;;;;;;;18.53;17.30;;;22.80;92.20;;;;;;2607588;54;20391;-61
2021/08/25 20:47:12;;;;;;;18.17;16.77;;;22.80;92.30;;;;;;2608124;54;20395;-60
2021/08/25 20:49:43;;;;;;;18.37;17.17;;;22.80;92.30;;;;;;2605786;54;20379;-60
2021/08/25 20:52:13;;;;;;;18.07;16.87;;;22.80;92.30;;;;;;2605478;54;20553;-61
2021/08/25 20:54:42;;;;;;;17.43;16.43;;;22.80;92.30;;;;;;2608255;47;20383;-60
2021/08/25 20:57:11;;;;;;;18.03;16.93;;;22.80;92.30;;;;;;2607090;39;21008;-60
2021/08/25 20:59:40;;;;;;;17.93;16.50;;;22.80;92.30;;;;;;2606433;54;20371;-60
2021/08/25 21:02:10;;;;;;;17.93;16.73;;;22.80;92.30;;;;;;2604945;39;20713;-60
2021/08/25 21:04:39;;;;;;;16.93;15.67;;;22.80;92.30;;;;;;2605814;54;20368;-60
2021/08/25 21:07:10;;;;;;;22.07;17.47;;;22.80;92.30;;;;;;2604914;54;20414;-59
2021/08/25 21:09:39;;;;;;;18.00;16.70;;;22.80;92.30;;;;;;2607414;39;20756;-59
2021/08/25 21:12:10;;;;;;;18.10;16.80;;;22.80;92.30;;;;;;2606848;54;20441;-59
2021/08/25 21:14:39;;;;;;;17.57;16.17;;;22.80;92.40;;;;;;2608702;54;20394;-60
2021/08/25 21:17:08;;;;;;;18.30;17.00;;;22.80;92.30;;;;;;2608343;54;20407;-61
2021/08/25 21:19:37;;;;;;;18.00;16.43;;;22.80;92.30;;;;;;2607616;39;20724;-60
2021/08/25 21:22:09;;;;;;;18.40;17.10;;;22.80;92.30;;;;;;2607286;54;20406;-60
2021/08/25 21:24:38;;;;;;;19.03;17.37;;;22.80;92.30;;;;;;2608124;54;20394;-59
2021/08/25 21:27:08;;;;;;;18.47;17.17;;;22.80;92.30;;;;;;2608216;54;20456;-60
2021/08/25 21:29:37;;;;;;;18.20;16.50;;;22.80;92.30;;;;;;2606961;47;20692;-60
2021/08/25 21:32:07;;;;;;;18.17;16.90;;;22.80;92.40;;;;;;2607296;54;20383;-60
2021/08/25 21:34:36;;;;;;;18.77;17.47;;;22.80;92.40;;;;;;2608622;47;20391;-60
2021/08/25 21:37:06;;;;;;;19.73;18.33;;;22.80;92.40;;;;;;2605562;54;20383;-59
2021/08/25 21:39:38;;;;;;;18.23;17.03;;;22.80;92.40;;;;;;2608495;54;20399;-60
2021/08/25 21:42:07;;;;;;;18.60;17.23;;;22.80;92.40;;;;;;2608686;39;20984;-60
2021/08/25 21:44:36;;;;;;;18.27;16.90;;;22.80;92.40;;;;;;2609089;47;20891;-59
2021/08/25 21:47:06;;;;;;;19.00;17.57;;;22.70;92.40;;;;;;2609897;54;20410;-59
2021/08/25 21:49:35;;;;;;;19.30;18.07;;;22.80;92.40;;;;;;2611094;39;21003;-60
2021/08/25 21:52:06;;;;;;;18.70;17.40;;;22.70;92.40;;;;;;2609615;54;20365;-60
2021/08/25 21:54:37;;;;;;;18.60;17.30;;;22.80;92.50;;;;;;2610799;54;20411;-60
2021/08/25 21:57:07;;;;;;;17.20;16.07;;;22.80;92.40;;;;;;2609959;39;20719;-61
2021/08/25 21:59:42;;;;;;;18.50;17.20;;;22.80;92.50;;;;;;2609953;54;20402;-61
2021/08/25 22:02:11;;;;;;;17.87;16.73;;;22.70;92.40;;;;;;2610367;54;20409;-60
2021/08/25 22:04:40;;;;;;;19.47;18.03;;;22.80;92.50;;;;;;2609973;39;20676;-60
2021/08/25 22:07:09;;;;;;;17.77;16.67;;;22.70;92.40;;;;;;2609195;54;20798;-60
2021/08/25 22:09:41;;;;;;;18.40;17.00;;;22.70;92.40;;;;;;2609115;54;20406;-61
2021/08/25 22:12:10;;;;;;;18.67;17.30;;;22.80;92.50;;;;;;2608975;39;20658;-61
2021/08/25 22:14:39;;;;;;;18.40;17.20;;;22.70;92.40;;;;;;2609049;54;20391;-59
2021/08/25 22:17:09;;;;;;;18.20;16.80;;;22.80;92.50;;;;;;2608329;47;20399;-60
2021/08/25 22:19:38;;;;;;;17.80;16.80;;;22.70;92.40;;;;;;2608830;51;20407;-60
2021/08/25 22:22:07;;;;;;;19.13;17.73;;;22.80;92.50;;;;;;2607628;54;20403;-60
2021/08/25 22:24:36;;;;;;;17.63;16.60;;;22.70;92.50;;;;;;2608343;54;20391;-60
2021/08/25 22:27:08;;;;;;;17.50;16.47;;;22.80;92.50;;;;;;2608474;54;20403;-61
2021/08/25 22:29:37;;;;;;;18.60;17.10;;;22.70;92.40;;;;;;2608167;54;20375;-60
2021/08/25 22:32:08;;;;;;;18.97;17.50;;;22.70;92.50;;;;;;2609848;39;20711;-61
2021/08/25 22:34:37;;;;;;;17.40;16.27;;;22.70;92.50;;;;;;2609573;54;20425;-60
2021/08/25 22:37:07;;;;;;;18.07;17.00;;;22.70;92.50;;;;;;2608540;54;20391;-61
2021/08/25 22:39:36;;;;;;;19.13;17.73;;;22.70;92.50;;;;;;2608919;53;20529;-60
2021/08/25 22:42:08;;;;;;;17.70;16.60;;;22.70;92.50;;;;;;2609358;54;20406;-61
2021/08/25 22:44:37;;;;;;;18.57;17.23;;;22.70;92.50;;;;;;2609224;54;20421;-61
2021/08/25 22:47:06;;;;;;;18.33;17.03;;;22.70;92.50;;;;;;2608744;54;20387;-60
2021/08/25 22:49:35;;;;;;;18.33;17.13;;;22.70;92.50;;;;;;2607498;39;20728;-58
2021/08/25 22:52:05;;;;;;;19.80;18.47;;;22.70;92.50;;;;;;2607265;54;20403;-60
2021/08/25 22:54:34;;;;;;;18.70;17.40;;;22.70;92.50;;;;;;2608577;54;20800;-61
2021/08/25 22:57:03;;;;;;;18.13;17.03;;;22.70;92.50;;;;;;2609522;39;20654;-60
2021/08/25 22:59:34;;;;;;;19.63;18.23;;;22.70;92.50;;;;;;2608933;54;20894;-59
2021/08/25 23:02:03;;;;;;;19.30;17.80;;;22.70;92.50;;;;;;2609881;54;20398;-61
2021/08/25 23:04:33;;;;;;;18.80;17.70;;;22.70;92.50;;;;;;2609423;54;20432;-60
2021/08/25 23:07:02;;;;;;;19.53;17.90;;;22.70;92.50;;;;;;2608790;54;20390;-61
2021/08/25 23:09:31;;;;;;;19.07;17.77;;;22.70;92.50;;;;;;2609457;54;20757;-60
2021/08/25 23:12:00;;;;;;;18.10;17.00;;;22.70;92.50;;;;;;2608420;54;21021;-60
2021/08/25 23:14:30;;;;;;;17.90;16.90;;;22.70;92.60;;;;;;2608590;54;20406;-61
2021/08/25 23:17:02;;;;;;;19.07;17.67;;;22.70;92.50;;;;;;2610862;47;20391;-60
2021/08/25 23:19:31;;;;;;;18.50;17.10;;;22.70;92.50;;;;;;2609862;54;20497;-60
2021/08/25 23:22:00;;;;;;;18.83;17.63;;;22.70;92.50;;;;;;2609022;54;20790;-59
2021/08/25 23:24:29;;;;;;;18.67;17.57;;;22.70;92.50;;;;;;2609221;54;20406;-61
2021/08/25 23:26:58;;;;;;;19.00;17.40;;;22.70;92.50;;;;;;2609684;54;20418;-60
2021/08/25 23:29:27;;;;;;;19.03;17.73;;;22.70;92.50;;;;;;2610025;54;20418;-59
2021/08/25 23:31:57;;;;;;;18.37;17.27;;;22.70;92.60;;;;;;2610339;39;20678;-59
2021/08/25 23:34:28;;;;;;;18.50;17.13;;;22.70;92.60;;;;;;2610278;54;20412;-59
2021/08/25 23:36:59;;;;;;;19.10;17.90;;;22.70;92.60;;;;;;2608346;54;20390;-60
2021/08/25 23:39:29;;;;;;;18.57;17.33;;;22.70;92.60;;;;;;2609279;54;20839;-60
2021/08/25 23:41:58;;;;;;;19.03;17.93;;;22.70;92.60;;;;;;2609304;54;20449;-59
2021/08/25 23:44:27;;;;;;;18.53;17.30;;;22.70;92.60;;;;;;2607582;39;20597;-61
2021/08/25 23:46:56;;;;;;;17.17;16.17;;;22.60;92.50;;;;;;2608501;54;20399;-61
2021/08/25 23:49:30;;;;;;;19.13;17.80;;;22.70;92.60;;;;;;2609539;54;20514;-60
2021/08/25 23:51:59;;;;;;;19.57;17.80;;;22.60;92.50;;;;;;2611010;39;21005;-59
2021/08/25 23:54:28;;;;;;;19.47;18.10;;;22.60;92.50;;;;;;2610398;54;20411;-60
2021/08/25 23:56:58;;;;;;;18.83;17.70;;;22.70;92.60;;;;;;2610208;54;20445;-60
2021/08/25 23:59:27;;;;;;;19.13;18.03;;;22.70;92.60;;;;;;2610098;54;20355;-60
